Terminal Aerodrome Forecast
Issued by NWS

Home | Current Version | Previous Version | Text Only | Print | Product List | Glossary On
Versions: 1 2 3 4 5 6 7 8 9 10 11 12 13 14 15 16 17
000
FTUS41 KPHI 290523
TAFMIV
TAF
KMIV 290523Z 2906/3006 03004KT P6SM FEW250
      TEMPO 2906/2907 5SM -SHRA BKN015
     FM291200 08005KT P6SM SKC
     FM291700 13007KT P6SM FEW050
     FM300000 13004KT P6SM FEW030 BKN250=

USA.gov is the U.S. government's official web portal to all federal, state and local government web resources and services.